METAR Data
IDs: Format: Raw Decoded Include TAF

Data at: 2344 UTC 25 Oct 2021

PFKW 252256Z AUTO 34010KT 10SM CLR M02/M05 A2941 RMK AO2 SLP959 T10171050 FZRANO
PFKW 251956Z AUTO 34006KT 10SM CLR M03/M04 A2940 RMK AO2 SLP956 T10281044 FZRANO
PFKW 251756Z AUTO 33006KT 10SM OVC033 M04/M05 A2938 RMK AO2 SLP950 T10391050 11028 21056 50002 FZRANO
PFKW 251743Z AUTO 35005KT 10SM OVC031 M04/M05 A2938 RMK AO2 FZRANO
PFKW 251656Z AUTO 36005KT 10SM OVC021 M03/M05 A2938 RMK AO2 SLP950 T10281050 FZRANO
PFKW 251520Z AUTO 35005KT 10SM OVC029 M04/M06 A2937 RMK AO2 FZRANO
PFKW 251456Z AUTO 36004KT 10SM OVC031 M05/M06 A2937 RMK AO2 SLP947 T10501061 57003 FZRANO
PFKW 251356Z AUTO 35005KT 10SM SCT035 M06/M07 A2938 RMK AO2 SLP948 T10561067 FZRANO
PFKW 251256Z AUTO 34004KT 10SM CLR M05/M06 A2938 RMK AO2 SLP949 T10501061 FZRANO
PFKW 251156Z AUTO 35006KT 10SM OVC035 M04/M05 A2938 RMK AO2 SLP950 T10391050 11039 21056 58007 FZRANO
PFKW 251115Z AUTO 34006KT 10SM OVC031 M04/M06 A2939 RMK AO2 FZRANO
PFKW 251056Z AUTO 33007KT 10SM BKN027 M05/M06 A2939 RMK AO2 SLP953 T10501061 FZRANO
PFKW 250956Z AUTO 33006KT 10SM BKN032 M05/M06 A2940 RMK AO2 SLP955 T10501056 FZRANO
PFKW 250856Z AUTO 33005KT 10SM CLR M05/M06 A2940 RMK AO2 SLP957 T10501061 400221056 56008 FZRANO
PFKW 250756Z AUTO 33003KT 10SM CLR M05/M06 A2941 RMK AO2 SLP959 T10501056 FZRANO
PFKW 250656Z AUTO 34003KT 10SM BKN038 M04/M05 A2941 RMK AO2 SLP961 T10391050 FZRANO
PFKW 250556Z AUTO 00000KT 10SM BKN038 M04/M05 A2943 RMK AO2 SLP965 T10391050 10006 21044 56011 FZRANO
PFKW 250456Z AUTO 33003KT 10SM CLR M02/M04 A2943 RMK AO2 SLP968 T10221039 FZRANO
PFKW 250356Z AUTO 32005KT 10SM FEW029 M02/M04 A2944 RMK AO2 SLP971 T10171039 FZRANO
PFKW 250329Z AUTO 33004KT 10SM BKN029 M01/M04 A2945 RMK AO2 FZRANO
PFKW 250211Z AUTO 35004KT 10SM SCT024 SCT035 00/M04 A2947 RMK AO2 FZRANO
PFKW 250120Z AUTO 29005KT 10SM BKN025 BKN029 00/M04 A2948 RMK AO2 FZRANO
PFKW 250056Z AUTO 32006KT 10SM CLR 01/M04 A2949 RMK AO2 SLP988 T00061044 FZRANO
PFKW 242356Z AUTO 30003KT 10SM CLR 01/M03 A2952 RMK AO2 SLP995 T00061033 10022 21056 58018 FZRANO
PFKW 242326Z AUTO 33004KT 10SM SCT018 00/M03 A2953 RMK AO2 FZRANO
PFKW 242317Z AUTO 31006KT 10SM BKN018 01/M03 A2953 RMK AO2 FZRANO
PFKW 242156Z AUTO 30004KT 10SM CLR 01/M01 A2955 RMK AO2 SLP007 T00111006 FZRANO
PFKW 242056Z AUTO 29005KT 10SM CLR M01/M02 A2957 RMK AO2 SLP013 T10061017 58003 FZRANO
PFKW 241956Z AUTO 25005KT 10SM CLR M02/M03 A2957 RMK AO2 SLP015 T10221033 FZRANO
PFKW 241756Z AUTO 24005KT 10SM CLR M06/M06 A2958 RMK AO2 SLP016 T10561061 11011 21056 58010 FZRANO
PFKW 241656Z AUTO 22004KT 10SM CLR M06/M06 A2959 RMK AO2 SLP022 T10561061 FZRANO
PFKW 241556Z AUTO 25004KT 10SM CLR M04/M05 A2960 RMK AO2 SLP024 T10441050 FZRANO
PFKW 241456Z AUTO 26005KT 10SM CLR M03/M04 A2961 RMK AO2 SLP026 T10281039 53009 FZRANO
PFKW 241356Z AUTO 26006KT 10SM SCT042 M02/M03 A2960 RMK AO2 SLP023 T10221028 FZRANO
PFKW 241256Z AUTO 28005KT 10SM FEW040 M02/M03 A2959 RMK AO2 SLP020 T10171028 FZRANO
PFKW 241156Z AUTO 29007KT 10SM FEW038 M01/M02 A2958 RMK AO2 SLP017 60000 T10111022 10006 21011 53022 FZRANO